sensor_id;sensor_type;location;lat;lon;timestamp;P1;durP1;ratioP1;P2;durP2;ratioP2
42726;SDS011;28372;56.832;60.658;2022-12-18T00:00:26;11.70;;;6.07;;
42726;SDS011;28372;56.832;60.658;2022-12-18T00:02:55;12.15;;;5.60;;
42726;SDS011;28372;56.832;60.658;2022-12-18T00:05:23;12.25;;;5.63;;
42726;SDS011;28372;56.832;60.658;2022-12-18T00:07:51;11.45;;;5.68;;
42726;SDS011;28372;56.832;60.658;2022-12-18T00:10:20;11.07;;;5.50;;
42726;SDS011;28372;56.832;60.658;2022-12-18T00:12:49;10.48;;;5.20;;
42726;SDS011;28372;56.832;60.658;2022-12-18T00:15:19;10.52;;;4.82;;
42726;SDS011;28372;56.832;60.658;2022-12-18T00:17:47;12.73;;;5.03;;
42726;SDS011;28372;56.832;60.658;2022-12-18T00:20:19;11.75;;;5.85;;
42726;SDS011;28372;56.832;60.658;2022-12-18T00:22:52;11.40;;;5.25;;
42726;SDS011;28372;56.832;60.658;2022-12-18T00:25:22;10.75;;;4.95;;
42726;SDS011;28372;56.832;60.658;2022-12-18T00:27:51;11.63;;;4.90;;
42726;SDS011;28372;56.832;60.658;2022-12-18T00:32:53;11.30;;;5.13;;
42726;SDS011;28372;56.832;60.658;2022-12-18T00:35:24;11.43;;;5.28;;
42726;SDS011;28372;56.832;60.658;2022-12-18T00:37:53;10.10;;;5.60;;
42726;SDS011;28372;56.832;60.658;2022-12-18T00:40:23;12.50;;;5.55;;
42726;SDS011;28372;56.832;60.658;2022-12-18T00:42:52;10.65;;;5.50;;
42726;SDS011;28372;56.832;60.658;2022-12-18T00:45:24;10.43;;;4.95;;
42726;SDS011;28372;56.832;60.658;2022-12-18T00:47:59;11.57;;;5.40;;
42726;SDS011;28372;56.832;60.658;2022-12-18T00:50:32;11.13;;;5.25;;
42726;SDS011;28372;56.832;60.658;2022-12-18T00:53:00;12.65;;;5.50;;
42726;SDS011;28372;56.832;60.658;2022-12-18T00:55:32;12.77;;;5.93;;
42726;SDS011;28372;56.832;60.658;2022-12-18T00:58:00;12.98;;;5.90;;
42726;SDS011;28372;56.832;60.658;2022-12-18T01:00:41;11.07;;;5.40;;
42726;SDS011;28372;56.832;60.658;2022-12-18T01:03:14;14.00;;;6.10;;
42726;SDS011;28372;56.832;60.658;2022-12-18T01:05:43;13.13;;;5.82;;
42726;SDS011;28372;56.832;60.658;2022-12-18T01:08:11;11.00;;;5.53;;
42726;SDS011;28372;56.832;60.658;2022-12-18T01:10:42;11.30;;;5.43;;
42726;SDS011;28372;56.832;60.658;2022-12-18T01:13:12;10.90;;;5.43;;
42726;SDS011;28372;56.832;60.658;2022-12-18T01:15:49;11.32;;;5.28;;
42726;SDS011;28372;56.832;60.658;2022-12-18T01:18:17;11.80;;;5.20;;
42726;SDS011;28372;56.832;60.658;2022-12-18T01:20:48;9.98;;;5.28;;
42726;SDS011;28372;56.832;60.658;2022-12-18T01:23:16;11.45;;;5.57;;
42726;SDS011;28372;56.832;60.658;2022-12-18T01:25:45;11.65;;;5.78;;
42726;SDS011;28372;56.832;60.658;2022-12-18T01:28:13;12.90;;;5.57;;
42726;SDS011;28372;56.832;60.658;2022-12-18T01:30:40;9.93;;;4.55;;
42726;SDS011;28372;56.832;60.658;2022-12-18T01:33:13;9.82;;;5.00;;
42726;SDS011;28372;56.832;60.658;2022-12-18T01:35:41;12.45;;;6.32;;
42726;SDS011;28372;56.832;60.658;2022-12-18T01:38:10;11.73;;;5.90;;
42726;SDS011;28372;56.832;60.658;2022-12-18T01:40:39;12.25;;;6.35;;
42726;SDS011;28372;56.832;60.658;2022-12-18T01:43:12;12.90;;;5.35;;
42726;SDS011;28372;56.832;60.658;2022-12-18T01:45:40;15.75;;;6.60;;
42726;SDS011;28372;56.832;60.658;2022-12-18T01:48:13;12.15;;;5.45;;
42726;SDS011;28372;56.832;60.658;2022-12-18T01:50:42;12.50;;;5.68;;
42726;SDS011;28372;56.832;60.658;2022-12-18T01:53:11;13.63;;;5.32;;
42726;SDS011;28372;56.832;60.658;2022-12-18T01:55:52;12.65;;;5.57;;
42726;SDS011;28372;56.832;60.658;2022-12-18T01:58:32;11.15;;;6.55;;
42726;SDS011;28372;56.832;60.658;2022-12-18T02:01:12;12.50;;;5.90;;
42726;SDS011;28372;56.832;60.658;2022-12-18T02:03:47;12.13;;;6.03;;
42726;SDS011;28372;56.832;60.658;2022-12-18T02:06:33;12.43;;;6.00;;
42726;SDS011;28372;56.832;60.658;2022-12-18T02:09:12;12.40;;;5.65;;
42726;SDS011;28372;56.832;60.658;2022-12-18T02:17:22;12.82;;;6.32;;
42726;SDS011;28372;56.832;60.658;2022-12-18T02:20:13;14.52;;;6.70;;
42726;SDS011;28372;56.832;60.658;2022-12-18T02:26:06;16.52;;;7.28;;
42726;SDS011;28372;56.832;60.658;2022-12-18T02:28:59;13.95;;;6.40;;
42726;SDS011;28372;56.832;60.658;2022-12-18T02:31:36;13.05;;;6.70;;
42726;SDS011;28372;56.832;60.658;2022-12-18T02:34:11;14.40;;;6.22;;
42726;SDS011;28372;56.832;60.658;2022-12-18T02:36:42;15.77;;;8.35;;
42726;SDS011;28372;56.832;60.658;2022-12-18T02:39:15;11.38;;;6.00;;
42726;SDS011;28372;56.832;60.658;2022-12-18T02:41:57;15.32;;;7.30;;
42726;SDS011;28372;56.832;60.658;2022-12-18T02:44:25;15.13;;;6.80;;
42726;SDS011;28372;56.832;60.658;2022-12-18T02:46:56;15.82;;;7.20;;
42726;SDS011;28372;56.832;60.658;2022-12-18T02:49:40;14.23;;;6.65;;
42726;SDS011;28372;56.832;60.658;2022-12-18T02:52:35;14.35;;;6.70;;
42726;SDS011;28372;56.832;60.658;2022-12-18T02:55:51;14.15;;;6.88;;
42726;SDS011;28372;56.832;60.658;2022-12-18T02:59:00;13.70;;;6.47;;
42726;SDS011;28372;56.832;60.658;2022-12-18T03:04:47;16.67;;;7.85;;
42726;SDS011;28372;56.832;60.658;2022-12-18T03:07:27;13.30;;;6.65;;
42726;SDS011;28372;56.832;60.658;2022-12-18T03:10:22;15.73;;;8.20;;
42726;SDS011;28372;56.832;60.658;2022-12-18T03:13:16;21.13;;;10.13;;
42726;SDS011;28372;56.832;60.658;2022-12-18T03:15:54;15.32;;;7.72;;
42726;SDS011;28372;56.832;60.658;2022-12-18T03:21:05;15.50;;;8.70;;
42726;SDS011;28372;56.832;60.658;2022-12-18T03:23:48;16.67;;;8.55;;
42726;SDS011;28372;56.832;60.658;2022-12-18T03:26:24;15.35;;;7.07;;
42726;SDS011;28372;56.832;60.658;2022-12-18T03:28:59;17.13;;;7.30;;
42726;SDS011;28372;56.832;60.658;2022-12-18T03:31:40;15.82;;;6.97;;
42726;SDS011;28372;56.832;60.658;2022-12-18T03:34:12;11.10;;;4.82;;
42726;SDS011;28372;56.832;60.658;2022-12-18T03:36:46;17.50;;;7.03;;
42726;SDS011;28372;56.832;60.658;2022-12-18T03:39:14;15.32;;;8.20;;
42726;SDS011;28372;56.832;60.658;2022-12-18T03:44:57;15.55;;;7.30;;
42726;SDS011;28372;56.832;60.658;2022-12-18T03:50:18;19.77;;;11.05;;
42726;SDS011;28372;56.832;60.658;2022-12-18T03:52:56;16.23;;;7.70;;
42726;SDS011;28372;56.832;60.658;2022-12-18T03:55:34;18.63;;;8.40;;
42726;SDS011;28372;56.832;60.658;2022-12-18T03:58:05;17.55;;;9.15;;
42726;SDS011;28372;56.832;60.658;2022-12-18T04:00:51;20.45;;;8.55;;
42726;SDS011;28372;56.832;60.658;2022-12-18T04:03:22;17.92;;;9.18;;
42726;SDS011;28372;56.832;60.658;2022-12-18T04:05:52;22.17;;;9.38;;
42726;SDS011;28372;56.832;60.658;2022-12-18T04:08:23;18.30;;;8.63;;
42726;SDS011;28372;56.832;60.658;2022-12-18T04:11:00;16.98;;;8.18;;
42726;SDS011;28372;56.832;60.658;2022-12-18T04:13:33;19.75;;;8.65;;
42726;SDS011;28372;56.832;60.658;2022-12-18T04:16:07;17.33;;;8.55;;
42726;SDS011;28372;56.832;60.658;2022-12-18T04:18:40;17.48;;;9.73;;
42726;SDS011;28372;56.832;60.658;2022-12-18T04:21:09;19.77;;;8.88;;
42726;SDS011;28372;56.832;60.658;2022-12-18T04:23:37;16.38;;;7.63;;
42726;SDS011;28372;56.832;60.658;2022-12-18T04:26:06;19.83;;;8.82;;
42726;SDS011;28372;56.832;60.658;2022-12-18T04:28:52;20.48;;;10.45;;
42726;SDS011;28372;56.832;60.658;2022-12-18T04:31:20;21.15;;;9.65;;
42726;SDS011;28372;56.832;60.658;2022-12-18T04:33:48;19.60;;;9.50;;
42726;SDS011;28372;56.832;60.658;2022-12-18T04:36:16;20.33;;;9.50;;
42726;SDS011;28372;56.832;60.658;2022-12-18T04:38:45;18.40;;;7.82;;
42726;SDS011;28372;56.832;60.658;2022-12-18T04:41:15;20.15;;;9.82;;
42726;SDS011;28372;56.832;60.658;2022-12-18T04:43:46;23.05;;;10.70;;
42726;SDS011;28372;56.832;60.658;2022-12-18T04:46:13;25.52;;;12.27;;
42726;SDS011;28372;56.832;60.658;2022-12-18T04:48:41;22.88;;;11.88;;
42726;SDS011;28372;56.832;60.658;2022-12-18T04:51:08;25.50;;;12.05;;
42726;SDS011;28372;56.832;60.658;2022-12-18T04:53:36;24.65;;;11.48;;
42726;SDS011;28372;56.832;60.658;2022-12-18T04:56:05;23.90;;;11.98;;
42726;SDS011;28372;56.832;60.658;2022-12-18T04:58:38;25.15;;;10.82;;
42726;SDS011;28372;56.832;60.658;2022-12-18T05:01:06;27.50;;;10.60;;
42726;SDS011;28372;56.832;60.658;2022-12-18T05:03:35;26.83;;;12.10;;
42726;SDS011;28372;56.832;60.658;2022-12-18T05:06:04;20.33;;;8.32;;
42726;SDS011;28372;56.832;60.658;2022-12-18T05:08:33;25.65;;;10.90;;
42726;SDS011;28372;56.832;60.658;2022-12-18T05:11:05;27.58;;;12.07;;
42726;SDS011;28372;56.832;60.658;2022-12-18T05:13:38;18.35;;;8.75;;
42726;SDS011;28372;56.832;60.658;2022-12-18T05:16:06;28.88;;;12.13;;
42726;SDS011;28372;56.832;60.658;2022-12-18T05:18:34;19.75;;;9.77;;
42726;SDS011;28372;56.832;60.658;2022-12-18T05:21:02;25.58;;;11.77;;
42726;SDS011;28372;56.832;60.658;2022-12-18T05:23:30;23.38;;;10.15;;
42726;SDS011;28372;56.832;60.658;2022-12-18T05:25:59;16.70;;;8.38;;
42726;SDS011;28372;56.832;60.658;2022-12-18T05:28:28;24.17;;;9.02;;
42726;SDS011;28372;56.832;60.658;2022-12-18T05:30:57;22.55;;;10.88;;
42726;SDS011;28372;56.832;60.658;2022-12-18T05:33:28;25.17;;;10.63;;
42726;SDS011;28372;56.832;60.658;2022-12-18T05:35:57;26.13;;;11.63;;
42726;SDS011;28372;56.832;60.658;2022-12-18T05:38:30;23.87;;;9.97;;
42726;SDS011;28372;56.832;60.658;2022-12-18T05:41:00;25.35;;;11.95;;
42726;SDS011;28372;56.832;60.658;2022-12-18T05:43:27;22.75;;;11.13;;
42726;SDS011;28372;56.832;60.658;2022-12-18T05:45:55;24.83;;;12.30;;
42726;SDS011;28372;56.832;60.658;2022-12-18T05:48:24;18.95;;;8.45;;
42726;SDS011;28372;56.832;60.658;2022-12-18T05:50:52;24.50;;;11.27;;
42726;SDS011;28372;56.832;60.658;2022-12-18T05:53:19;23.48;;;10.02;;
42726;SDS011;28372;56.832;60.658;2022-12-18T05:55:47;24.50;;;11.43;;
42726;SDS011;28372;56.832;60.658;2022-12-18T05:58:15;22.52;;;8.65;;
42726;SDS011;28372;56.832;60.658;2022-12-18T06:00:44;30.13;;;13.77;;
42726;SDS011;28372;56.832;60.658;2022-12-18T06:03:13;21.60;;;9.68;;
42726;SDS011;28372;56.832;60.658;2022-12-18T06:05:42;22.30;;;9.82;;
42726;SDS011;28372;56.832;60.658;2022-12-18T06:08:11;28.52;;;12.85;;
42726;SDS011;28372;56.832;60.658;2022-12-18T06:10:40;21.88;;;9.95;;
42726;SDS011;28372;56.832;60.658;2022-12-18T06:13:08;30.20;;;13.07;;
42726;SDS011;28372;56.832;60.658;2022-12-18T06:15:36;25.23;;;11.15;;
42726;SDS011;28372;56.832;60.658;2022-12-18T06:18:05;23.48;;;11.25;;
42726;SDS011;28372;56.832;60.658;2022-12-18T06:20:32;28.20;;;11.45;;
42726;SDS011;28372;56.832;60.658;2022-12-18T06:23:00;27.20;;;11.88;;
42726;SDS011;28372;56.832;60.658;2022-12-18T06:25:28;26.40;;;12.35;;
42726;SDS011;28372;56.832;60.658;2022-12-18T06:27:55;28.60;;;13.88;;
42726;SDS011;28372;56.832;60.658;2022-12-18T06:30:23;27.35;;;12.25;;
42726;SDS011;28372;56.832;60.658;2022-12-18T06:32:51;30.05;;;11.98;;
42726;SDS011;28372;56.832;60.658;2022-12-18T06:35:22;27.33;;;13.40;;
42726;SDS011;28372;56.832;60.658;2022-12-18T06:37:50;26.27;;;12.52;;
42726;SDS011;28372;56.832;60.658;2022-12-18T06:40:18;25.40;;;12.32;;
42726;SDS011;28372;56.832;60.658;2022-12-18T06:42:45;31.48;;;13.80;;
42726;SDS011;28372;56.832;60.658;2022-12-18T06:45:16;28.90;;;12.57;;
42726;SDS011;28372;56.832;60.658;2022-12-18T06:47:44;28.05;;;12.95;;
42726;SDS011;28372;56.832;60.658;2022-12-18T06:50:12;33.22;;;13.07;;
42726;SDS011;28372;56.832;60.658;2022-12-18T06:52:40;27.67;;;13.63;;
42726;SDS011;28372;56.832;60.658;2022-12-18T06:55:09;31.45;;;12.75;;
42726;SDS011;28372;56.832;60.658;2022-12-18T06:57:38;30.02;;;12.82;;
42726;SDS011;28372;56.832;60.658;2022-12-18T07:00:06;24.60;;;13.05;;
42726;SDS011;28372;56.832;60.658;2022-12-18T07:02:34;32.70;;;13.70;;
42726;SDS011;28372;56.832;60.658;2022-12-18T07:05:02;32.80;;;14.45;;
42726;SDS011;28372;56.832;60.658;2022-12-18T07:10:03;29.77;;;12.15;;
42726;SDS011;28372;56.832;60.658;2022-12-18T07:12:31;28.27;;;12.10;;
42726;SDS011;28372;56.832;60.658;2022-12-18T07:14:59;30.73;;;14.00;;
42726;SDS011;28372;56.832;60.658;2022-12-18T07:17:29;33.22;;;13.30;;
42726;SDS011;28372;56.832;60.658;2022-12-18T07:19:56;34.20;;;15.35;;
42726;SDS011;28372;56.832;60.658;2022-12-18T07:22:27;30.23;;;14.43;;
42726;SDS011;28372;56.832;60.658;2022-12-18T07:24:54;27.05;;;11.30;;
42726;SDS011;28372;56.832;60.658;2022-12-18T07:27:22;33.83;;;14.63;;
42726;SDS011;28372;56.832;60.658;2022-12-18T07:29:50;28.52;;;12.75;;
42726;SDS011;28372;56.832;60.658;2022-12-18T07:32:18;31.33;;;12.80;;
42726;SDS011;28372;56.832;60.658;2022-12-18T07:34:45;27.27;;;12.05;;
42726;SDS011;28372;56.832;60.658;2022-12-18T07:37:13;26.60;;;12.57;;
42726;SDS011;28372;56.832;60.658;2022-12-18T07:39:41;30.00;;;12.60;;
42726;SDS011;28372;56.832;60.658;2022-12-18T07:42:09;28.23;;;12.43;;
42726;SDS011;28372;56.832;60.658;2022-12-18T07:44:54;31.35;;;12.93;;
42726;SDS011;28372;56.832;60.658;2022-12-18T07:47:22;36.25;;;14.85;;
42726;SDS011;28372;56.832;60.658;2022-12-18T07:49:50;27.60;;;11.23;;
42726;SDS011;28372;56.832;60.658;2022-12-18T07:52:17;35.03;;;13.70;;
42726;SDS011;28372;56.832;60.658;2022-12-18T07:57:19;32.08;;;13.35;;
42726;SDS011;28372;56.832;60.658;2022-12-18T08:00:06;33.05;;;13.55;;
42726;SDS011;28372;56.832;60.658;2022-12-18T08:02:38;30.30;;;14.25;;
42726;SDS011;28372;56.832;60.658;2022-12-18T08:05:05;38.50;;;14.82;;
42726;SDS011;28372;56.832;60.658;2022-12-18T08:07:33;32.08;;;14.02;;
42726;SDS011;28372;56.832;60.658;2022-12-18T08:10:01;31.48;;;12.30;;
42726;SDS011;28372;56.832;60.658;2022-12-18T08:12:29;34.65;;;13.93;;
42726;SDS011;28372;56.832;60.658;2022-12-18T08:14:57;35.10;;;14.20;;
42726;SDS011;28372;56.832;60.658;2022-12-18T08:17:24;31.25;;;12.70;;
42726;SDS011;28372;56.832;60.658;2022-12-18T08:19:52;36.38;;;14.60;;
42726;SDS011;28372;56.832;60.658;2022-12-18T08:22:20;30.42;;;13.05;;
42726;SDS011;28372;56.832;60.658;2022-12-18T08:24:47;32.47;;;13.90;;
42726;SDS011;28372;56.832;60.658;2022-12-18T08:27:15;36.78;;;14.52;;
42726;SDS011;28372;56.832;60.658;2022-12-18T08:29:58;33.97;;;13.25;;
42726;SDS011;28372;56.832;60.658;2022-12-18T08:32:26;32.95;;;12.73;;
42726;SDS011;28372;56.832;60.658;2022-12-18T08:34:54;34.05;;;14.30;;
42726;SDS011;28372;56.832;60.658;2022-12-18T08:37:23;32.90;;;13.60;;
42726;SDS011;28372;56.832;60.658;2022-12-18T08:39:51;35.45;;;14.73;;
42726;SDS011;28372;56.832;60.658;2022-12-18T08:42:19;26.08;;;11.73;;
42726;SDS011;28372;56.832;60.658;2022-12-18T08:45:04;36.78;;;16.38;;
42726;SDS011;28372;56.832;60.658;2022-12-18T08:47:32;36.10;;;15.48;;
42726;SDS011;28372;56.832;60.658;2022-12-18T08:50:00;32.15;;;14.13;;
42726;SDS011;28372;56.832;60.658;2022-12-18T08:52:30;21.55;;;10.88;;
42726;SDS011;28372;56.832;60.658;2022-12-18T08:54:59;28.42;;;12.32;;
42726;SDS011;28372;56.832;60.658;2022-12-18T08:57:28;30.13;;;12.25;;
42726;SDS011;28372;56.832;60.658;2022-12-18T08:59:56;30.55;;;12.80;;
42726;SDS011;28372;56.832;60.658;2022-12-18T09:02:23;27.02;;;12.23;;
42726;SDS011;28372;56.832;60.658;2022-12-18T09:04:51;38.00;;;16.55;;
42726;SDS011;28372;56.832;60.658;2022-12-18T09:07:23;36.03;;;15.80;;
42726;SDS011;28372;56.832;60.658;2022-12-18T09:09:51;32.05;;;14.70;;
42726;SDS011;28372;56.832;60.658;2022-12-18T09:12:18;28.65;;;12.65;;
42726;SDS011;28372;56.832;60.658;2022-12-18T09:14:46;29.98;;;12.95;;
42726;SDS011;28372;56.832;60.658;2022-12-18T09:17:14;34.20;;;15.95;;
42726;SDS011;28372;56.832;60.658;2022-12-18T09:19:41;33.85;;;13.50;;
42726;SDS011;28372;56.832;60.658;2022-12-18T09:22:10;29.52;;;13.38;;
42726;SDS011;28372;56.832;60.658;2022-12-18T09:24:37;34.83;;;14.75;;
42726;SDS011;28372;56.832;60.658;2022-12-18T09:27:05;31.35;;;13.50;;
42726;SDS011;28372;56.832;60.658;2022-12-18T09:29:33;36.47;;;15.20;;
42726;SDS011;28372;56.832;60.658;2022-12-18T09:32:00;33.67;;;14.07;;
42726;SDS011;28372;56.832;60.658;2022-12-18T09:34:28;24.25;;;11.57;;
42726;SDS011;28372;56.832;60.658;2022-12-18T09:36:55;35.35;;;14.52;;
42726;SDS011;28372;56.832;60.658;2022-12-18T09:39:23;32.42;;;13.68;;
42726;SDS011;28372;56.832;60.658;2022-12-18T09:41:52;32.90;;;13.30;;
42726;SDS011;28372;56.832;60.658;2022-12-18T09:44:36;34.20;;;14.32;;
42726;SDS011;28372;56.832;60.658;2022-12-18T09:47:25;37.92;;;13.77;;
42726;SDS011;28372;56.832;60.658;2022-12-18T09:49:59;31.50;;;12.43;;
42726;SDS011;28372;56.832;60.658;2022-12-18T09:52:37;29.20;;;13.70;;
42726;SDS011;28372;56.832;60.658;2022-12-18T09:58:13;31.13;;;13.60;;
42726;SDS011;28372;56.832;60.658;2022-12-18T10:00:53;29.80;;;12.82;;
42726;SDS011;28372;56.832;60.658;2022-12-18T10:03:22;37.60;;;15.68;;
42726;SDS011;28372;56.832;60.658;2022-12-18T10:06:04;30.75;;;13.15;;
42726;SDS011;28372;56.832;60.658;2022-12-18T10:11:34;41.92;;;18.17;;
42726;SDS011;28372;56.832;60.658;2022-12-18T10:20:00;30.92;;;13.90;;
42726;SDS011;28372;56.832;60.658;2022-12-18T10:25:28;35.50;;;14.25;;
42726;SDS011;28372;56.832;60.658;2022-12-18T10:28:00;35.45;;;15.20;;
42726;SDS011;28372;56.832;60.658;2022-12-18T10:30:39;33.22;;;15.02;;
42726;SDS011;28372;56.832;60.658;2022-12-18T10:33:14;36.78;;;14.52;;
42726;SDS011;28372;56.832;60.658;2022-12-18T10:35:45;33.65;;;13.50;;
42726;SDS011;28372;56.832;60.658;2022-12-18T10:41:26;34.35;;;13.80;;
42726;SDS011;28372;56.832;60.658;2022-12-18T10:43:51;36.47;;;14.68;;
42726;SDS011;28372;56.832;60.658;2022-12-18T10:46:38;34.53;;;13.77;;
42726;SDS011;28372;56.832;60.658;2022-12-18T10:49:07;31.17;;;12.55;;
42726;SDS011;28372;56.832;60.658;2022-12-18T10:51:48;36.65;;;15.82;;
42726;SDS011;28372;56.832;60.658;2022-12-18T10:54:21;35.78;;;16.05;;
42726;SDS011;28372;56.832;60.658;2022-12-18T10:56:50;30.27;;;12.95;;
42726;SDS011;28372;56.832;60.658;2022-12-18T10:59:17;25.10;;;10.93;;
42726;SDS011;28372;56.832;60.658;2022-12-18T11:01:50;29.63;;;13.35;;
42726;SDS011;28372;56.832;60.658;2022-12-18T11:04:23;34.17;;;12.88;;
42726;SDS011;28372;56.832;60.658;2022-12-18T11:06:53;36.33;;;14.88;;
42726;SDS011;28372;56.832;60.658;2022-12-18T11:09:27;34.10;;;12.95;;
42726;SDS011;28372;56.832;60.658;2022-12-18T11:11:59;39.15;;;14.98;;
42726;SDS011;28372;56.832;60.658;2022-12-18T11:14:33;39.15;;;15.32;;
42726;SDS011;28372;56.832;60.658;2022-12-18T11:20:03;38.20;;;14.85;;
42726;SDS011;28372;56.832;60.658;2022-12-18T11:22:34;39.13;;;15.10;;
42726;SDS011;28372;56.832;60.658;2022-12-18T11:34:03;42.28;;;16.90;;
42726;SDS011;28372;56.832;60.658;2022-12-18T11:36:56;38.13;;;16.83;;
42726;SDS011;28372;56.832;60.658;2022-12-18T11:39:37;35.63;;;13.85;;
42726;SDS011;28372;56.832;60.658;2022-12-18T11:42:13;41.27;;;16.97;;
42726;SDS011;28372;56.832;60.658;2022-12-18T11:47:35;34.90;;;15.32;;
42726;SDS011;28372;56.832;60.658;2022-12-18T11:50:12;40.50;;;18.60;;
42726;SDS011;28372;56.832;60.658;2022-12-18T11:52:45;39.75;;;14.27;;
42726;SDS011;28372;56.832;60.658;2022-12-18T12:11:29;46.28;;;16.50;;
42726;SDS011;28372;56.832;60.658;2022-12-18T12:39:56;34.25;;;14.23;;
42726;SDS011;28372;56.832;60.658;2022-12-18T12:42:34;33.75;;;13.85;;
42726;SDS011;28372;56.832;60.658;2022-12-18T12:45:34;35.67;;;15.82;;
42726;SDS011;28372;56.832;60.658;2022-12-18T12:48:13;44.95;;;20.48;;
42726;SDS011;28372;56.832;60.658;2022-12-18T12:51:00;34.08;;;15.77;;
42726;SDS011;28372;56.832;60.658;2022-12-18T12:53:34;39.28;;;18.25;;
42726;SDS011;28372;56.832;60.658;2022-12-18T12:56:05;37.15;;;14.05;;
42726;SDS011;28372;56.832;60.658;2022-12-18T13:09:11;40.03;;;19.70;;
42726;SDS011;28372;56.832;60.658;2022-12-18T13:11:45;42.53;;;17.73;;
42726;SDS011;28372;56.832;60.658;2022-12-18T13:19:51;37.50;;;14.30;;
42726;SDS011;28372;56.832;60.658;2022-12-18T13:22:32;39.28;;;16.25;;
42726;SDS011;28372;56.832;60.658;2022-12-18T13:30:43;35.20;;;14.77;;
42726;SDS011;28372;56.832;60.658;2022-12-18T13:35:42;39.00;;;17.48;;
42726;SDS011;28372;56.832;60.658;2022-12-18T13:41:03;41.13;;;18.73;;
42726;SDS011;28372;56.832;60.658;2022-12-18T13:43:53;38.45;;;17.60;;
42726;SDS011;28372;56.832;60.658;2022-12-18T13:51:41;38.60;;;17.45;;
42726;SDS011;28372;56.832;60.658;2022-12-18T13:54:19;32.22;;;13.52;;
42726;SDS011;28372;56.832;60.658;2022-12-18T13:56:55;44.50;;;21.85;;
42726;SDS011;28372;56.832;60.658;2022-12-18T13:59:33;39.92;;;17.50;;
42726;SDS011;28372;56.832;60.658;2022-12-18T14:02:09;41.67;;;16.67;;
42726;SDS011;28372;56.832;60.658;2022-12-18T14:04:44;39.35;;;16.13;;
42726;SDS011;28372;56.832;60.658;2022-12-18T14:07:16;39.80;;;17.02;;
42726;SDS011;28372;56.832;60.658;2022-12-18T14:09:47;36.42;;;13.13;;
42726;SDS011;28372;56.832;60.658;2022-12-18T14:12:24;42.67;;;21.10;;
42726;SDS011;28372;56.832;60.658;2022-12-18T14:15:30;42.10;;;18.00;;
42726;SDS011;28372;56.832;60.658;2022-12-18T14:18:24;42.30;;;18.55;;
42726;SDS011;28372;56.832;60.658;2022-12-18T14:20:56;42.75;;;18.90;;
42726;SDS011;28372;56.832;60.658;2022-12-18T14:23:26;37.25;;;15.10;;
42726;SDS011;28372;56.832;60.658;2022-12-18T14:25:55;43.25;;;19.90;;
42726;SDS011;28372;56.832;60.658;2022-12-18T14:28:31;43.17;;;18.15;;
42726;SDS011;28372;56.832;60.658;2022-12-18T14:30:59;46.83;;;23.45;;
42726;SDS011;28372;56.832;60.658;2022-12-18T14:33:27;39.97;;;16.90;;
42726;SDS011;28372;56.832;60.658;2022-12-18T14:36:02;49.45;;;22.45;;
42726;SDS011;28372;56.832;60.658;2022-12-18T14:41:04;32.85;;;17.10;;
42726;SDS011;28372;56.832;60.658;2022-12-18T14:43:34;49.28;;;20.55;;
42726;SDS011;28372;56.832;60.658;2022-12-18T14:49:30;46.33;;;21.13;;
42726;SDS011;28372;56.832;60.658;2022-12-18T14:52:00;37.80;;;16.20;;
42726;SDS011;28372;56.832;60.658;2022-12-18T14:54:30;49.58;;;22.60;;
42726;SDS011;28372;56.832;60.658;2022-12-18T14:57:00;53.28;;;22.20;;
42726;SDS011;28372;56.832;60.658;2022-12-18T14:59:30;46.92;;;20.13;;
42726;SDS011;28372;56.832;60.658;2022-12-18T15:02:19;48.15;;;21.33;;
42726;SDS011;28372;56.832;60.658;2022-12-18T15:05:03;50.95;;;22.40;;
42726;SDS011;28372;56.832;60.658;2022-12-18T15:07:42;47.92;;;21.15;;
42726;SDS011;28372;56.832;60.658;2022-12-18T15:15:43;44.42;;;19.10;;
42726;SDS011;28372;56.832;60.658;2022-12-18T15:28:43;46.22;;;20.77;;
42726;SDS011;28372;56.832;60.658;2022-12-18T15:33:42;44.65;;;19.13;;
42726;SDS011;28372;56.832;60.658;2022-12-18T15:36:17;41.90;;;18.05;;
42726;SDS011;28372;56.832;60.658;2022-12-18T15:38:53;46.67;;;20.42;;
42726;SDS011;28372;56.832;60.658;2022-12-18T15:41:34;48.13;;;20.20;;
42726;SDS011;28372;56.832;60.658;2022-12-18T15:44:15;39.47;;;16.80;;
42726;SDS011;28372;56.832;60.658;2022-12-18T15:46:50;48.85;;;22.08;;
42726;SDS011;28372;56.832;60.658;2022-12-18T15:49:18;46.95;;;19.73;;
42726;SDS011;28372;56.832;60.658;2022-12-18T15:51:45;44.42;;;17.92;;
42726;SDS011;28372;56.832;60.658;2022-12-18T15:54:26;53.22;;;23.98;;
42726;SDS011;28372;56.832;60.658;2022-12-18T15:57:15;51.50;;;21.35;;
42726;SDS011;28372;56.832;60.658;2022-12-18T15:59:58;44.15;;;21.00;;
42726;SDS011;28372;56.832;60.658;2022-12-18T16:02:47;58.30;;;24.48;;
42726;SDS011;28372;56.832;60.658;2022-12-18T16:05:19;47.42;;;20.60;;
42726;SDS011;28372;56.832;60.658;2022-12-18T16:07:53;57.65;;;24.85;;
42726;SDS011;28372;56.832;60.658;2022-12-18T16:10:27;43.83;;;17.67;;
42726;SDS011;28372;56.832;60.658;2022-12-18T16:12:55;57.35;;;27.48;;
42726;SDS011;28372;56.832;60.658;2022-12-18T16:15:34;44.30;;;18.52;;
42726;SDS011;28372;56.832;60.658;2022-12-18T16:18:07;47.10;;;20.73;;
42726;SDS011;28372;56.832;60.658;2022-12-18T16:20:35;47.40;;;20.95;;
42726;SDS011;28372;56.832;60.658;2022-12-18T16:23:06;42.10;;;17.92;;
42726;SDS011;28372;56.832;60.658;2022-12-18T16:25:35;44.33;;;20.20;;
42726;SDS011;28372;56.832;60.658;2022-12-18T16:28:08;46.25;;;19.40;;
42726;SDS011;28372;56.832;60.658;2022-12-18T16:30:36;48.72;;;18.15;;
42726;SDS011;28372;56.832;60.658;2022-12-18T16:33:10;51.63;;;19.17;;
42726;SDS011;28372;56.832;60.658;2022-12-18T16:35:42;51.75;;;21.15;;
42726;SDS011;28372;56.832;60.658;2022-12-18T16:38:13;53.47;;;23.70;;
42726;SDS011;28372;56.832;60.658;2022-12-18T16:40:54;68.13;;;28.02;;
42726;SDS011;28372;56.832;60.658;2022-12-18T16:43:40;50.72;;;20.70;;
42726;SDS011;28372;56.832;60.658;2022-12-18T16:46:12;55.28;;;23.33;;
42726;SDS011;28372;56.832;60.658;2022-12-18T16:48:43;60.58;;;24.27;;
42726;SDS011;28372;56.832;60.658;2022-12-18T16:51:11;66.10;;;28.67;;
42726;SDS011;28372;56.832;60.658;2022-12-18T16:53:46;51.50;;;19.55;;
42726;SDS011;28372;56.832;60.658;2022-12-18T16:56:23;45.95;;;19.92;;
42726;SDS011;28372;56.832;60.658;2022-12-18T16:58:55;52.42;;;22.73;;
42726;SDS011;28372;56.832;60.658;2022-12-18T17:01:30;55.13;;;24.88;;
42726;SDS011;28372;56.832;60.658;2022-12-18T17:04:02;47.03;;;21.13;;
42726;SDS011;28372;56.832;60.658;2022-12-18T17:06:34;51.13;;;22.38;;
42726;SDS011;28372;56.832;60.658;2022-12-18T17:09:12;60.55;;;26.48;;
42726;SDS011;28372;56.832;60.658;2022-12-18T17:11:51;57.13;;;25.77;;
42726;SDS011;28372;56.832;60.658;2022-12-18T17:14:23;61.28;;;25.35;;
42726;SDS011;28372;56.832;60.658;2022-12-18T17:16:54;53.42;;;22.40;;
42726;SDS011;28372;56.832;60.658;2022-12-18T17:19:48;57.97;;;23.58;;
42726;SDS011;28372;56.832;60.658;2022-12-18T17:22:18;41.72;;;18.45;;
42726;SDS011;28372;56.832;60.658;2022-12-18T17:24:55;53.35;;;22.75;;